Time;durP1;ratioP1;P1;durP2;ratioP2;P2;SDS_P1;SDS_P2;PMS_P1;PMS_P2;Temp;Humidity;BMP_temperature;BMP_pressure;BME280_temperature;BME280_humidity;BME280_pressure;Samples;Min_cycle;Max_cycle;Signal;HPM_P1;HPM_P2
2022/08/06 00:00:31;;;;;;;4.47;1.67;;;23.60;50.20;;;;;;5036312;28;20218;-68
2022/08/06 00:02:57;;;;;;;2.08;1.20;;;23.60;50.10;;;;;;5035850;28;20198;-68
2022/08/06 00:05:22;;;;;;;1.92;0.85;;;23.60;50.30;;;;;;5035147;28;20184;-69
2022/08/06 00:07:48;;;;;;;2.67;0.93;;;23.60;50.50;;;;;;5036099;28;20171;-68
2022/08/06 00:10:14;;;;;;;2.45;1.20;;;23.60;50.60;;;;;;5035830;28;20701;-69
2022/08/06 00:12:40;;;;;;;2.63;1.23;;;23.60;50.90;;;;;;5035268;28;20206;-68
2022/08/06 00:15:06;;;;;;;1.95;0.82;;;23.60;51.40;;;;;;5035929;28;20171;-68
2022/08/06 00:17:32;;;;;;;2.53;1.20;;;23.60;50.60;;;;;;5035927;28;20168;-68
2022/08/06 00:19:58;;;;;;;3.72;1.17;;;23.60;50.60;;;;;;5035123;28;20198;-68
2022/08/06 00:22:23;;;;;;;3.17;0.90;;;23.50;50.30;;;;;;5035745;28;20184;-68
2022/08/06 00:24:49;;;;;;;2.50;1.00;;;23.50;50.50;;;;;;5035574;28;20263;-68
2022/08/06 00:27:14;;;;;;;3.42;1.20;;;23.60;50.60;;;;;;5035249;28;20266;-67
2022/08/06 00:29:40;;;;;;;2.28;0.95;;;23.60;51.30;;;;;;5035631;28;20271;-68
2022/08/06 00:32:05;;;;;;;2.83;1.00;;;23.50;51.00;;;;;;5035577;28;20172;-68
2022/08/06 00:34:31;;;;;;;2.08;1.00;;;23.50;50.80;;;;;;5034971;28;20176;-68
2022/08/06 00:36:56;;;;;;;4.03;1.33;;;23.50;50.80;;;;;;5035454;28;20736;-68
2022/08/06 00:39:22;;;;;;;2.53;1.10;;;23.50;50.90;;;;;;5035409;28;20171;-68
2022/08/06 00:41:47;;;;;;;1.42;0.98;;;23.50;51.00;;;;;;5034106;28;20291;-68
2022/08/06 00:44:13;;;;;;;2.67;1.10;;;23.50;50.80;;;;;;5034946;28;20263;-68
2022/08/06 00:46:39;;;;;;;3.58;1.13;;;23.50;50.70;;;;;;5035572;28;20271;-68
2022/08/06 00:49:04;;;;;;;3.67;1.20;;;23.50;51.00;;;;;;5034328;28;20179;-67
2022/08/06 00:51:30;;;;;;;3.22;1.17;;;23.50;50.80;;;;;;5034936;28;20187;-68
2022/08/06 00:53:55;;;;;;;1.33;0.95;;;23.50;51.10;;;;;;5034925;28;20176;-68
2022/08/06 00:56:21;;;;;;;2.25;1.00;;;23.50;51.20;;;;;;5034225;28;20174;-67
2022/08/06 00:58:46;;;;;;;2.65;1.10;;;23.40;51.30;;;;;;5035059;28;20176;-68
2022/08/06 01:01:12;;;;;;;2.05;1.10;;;23.50;51.30;;;;;;5034671;28;20211;-68
2022/08/06 01:03:38;;;;;;;2.22;1.10;;;23.50;51.50;;;;;;5034607;28;20172;-68
2022/08/06 01:06:03;;;;;;;1.33;0.80;;;23.50;51.60;;;;;;5034877;28;20183;-69
2022/08/06 01:08:29;;;;;;;1.05;0.95;;;23.50;51.80;;;;;;5033804;28;20220;-68
2022/08/06 01:10:54;;;;;;;1.67;1.00;;;23.40;51.80;;;;;;5034887;28;20199;-69
2022/08/06 01:13:20;;;;;;;2.03;1.13;;;23.40;51.80;;;;;;5034805;28;20176;-68
2022/08/06 01:15:50;;;;;;;1.60;0.80;;;23.40;51.80;;;;;;5034027;28;20176;-68
2022/08/06 01:18:25;;;;;;;1.27;0.90;;;23.40;51.90;;;;;;5033432;28;20184;-68
2022/08/06 01:21:12;;;;;;;2.20;0.90;;;23.40;51.90;;;;;;5033126;28;20215;-67
2022/08/06 01:24:10;;;;;;;2.63;1.30;;;23.40;51.80;;;;;;5032856;28;20172;-68
2022/08/06 01:26:49;;;;;;;1.90;0.95;;;23.40;51.90;;;;;;5033555;28;20187;-68
2022/08/06 01:29:34;;;;;;;1.27;1.10;;;23.40;51.90;;;;;;5016851;28;20229;-67
2022/08/06 01:32:10;;;;;;;1.58;0.80;;;23.40;51.80;;;;;;5033283;28;20211;-69
2022/08/06 01:34:40;;;;;;;3.58;1.00;;;23.30;51.60;;;;;;5033341;28;20230;-69
2022/08/06 01:37:11;;;;;;;2.05;0.93;;;23.40;51.40;;;;;;5032247;28;20184;-68
2022/08/06 01:39:37;;;;;;;1.38;0.85;;;23.40;51.60;;;;;;5033079;28;20172;-69
2022/08/06 01:42:03;;;;;;;1.77;1.10;;;23.40;51.60;;;;;;5032779;28;20217;-68
2022/08/06 01:44:31;;;;;;;2.45;0.98;;;23.40;51.70;;;;;;5032017;28;20172;-67
2022/08/06 01:46:58;;;;;;;2.92;0.80;;;23.40;51.80;;;;;;5034222;28;20198;-68
2022/08/06 01:49:26;;;;;;;1.80;1.00;;;23.30;51.90;;;;;;5016403;28;20664;-67
2022/08/06 01:51:53;;;;;;;1.48;0.82;;;23.30;51.90;;;;;;5032145;28;20184;-68
2022/08/06 01:54:19;;;;;;;1.63;0.77;;;23.30;52.00;;;;;;5016099;28;20176;-68
2022/08/06 01:56:46;;;;;;;2.00;0.82;;;23.30;52.00;;;;;;5016067;28;20179;-67
2022/08/06 01:59:12;;;;;;;1.73;0.90;;;23.30;52.20;;;;;;5015762;28;20172;-68
2022/08/06 02:01:38;;;;;;;2.25;1.00;;;23.30;52.20;;;;;;5032531;28;20219;-68
2022/08/06 02:04:03;;;;;;;2.83;1.08;;;23.30;52.20;;;;;;5016223;28;20179;-69
2022/08/06 02:06:33;;;;;;;1.42;0.82;;;23.30;52.10;;;;;;5033138;28;20179;-69
2022/08/06 02:09:04;;;;;;;1.95;1.23;;;23.30;52.20;;;;;;5033439;28;20316;-69
2022/08/06 02:11:31;;;;;;;1.58;0.80;;;23.20;52.20;;;;;;5016093;28;20172;-69
2022/08/06 02:13:58;;;;;;;2.25;1.05;;;23.30;52.20;;;;;;5015458;28;20179;-68
2022/08/06 02:16:23;;;;;;;2.28;0.82;;;23.20;52.20;;;;;;5032743;28;20203;-68
2022/08/06 02:18:49;;;;;;;2.58;1.05;;;23.20;52.20;;;;;;5032618;28;20183;-68
2022/08/06 02:21:17;;;;;;;1.52;0.82;;;23.20;52.30;;;;;;5015862;28;20204;-69
2022/08/06 02:23:42;;;;;;;2.88;0.95;;;23.20;52.20;;;;;;5033472;28;20700;-68
2022/08/06 02:26:08;;;;;;;1.88;0.93;;;23.20;52.30;;;;;;5031479;28;20180;-68
2022/08/06 02:28:33;;;;;;;3.00;1.00;;;23.20;52.30;;;;;;5016034;28;20184;-68
2022/08/06 02:30:59;;;;;;;1.05;0.82;;;23.20;52.30;;;;;;5032125;28;20179;-68
2022/08/06 02:33:25;;;;;;;2.08;1.08;;;23.20;52.40;;;;;;5032589;28;20234;-69
2022/08/06 02:36:00;;;;;;;1.05;0.95;;;23.20;52.30;;;;;;5031955;28;20238;-68
2022/08/06 02:38:48;;;;;;;2.13;1.00;;;23.20;52.50;;;;;;5032036;28;20176;-67
2022/08/06 02:41:19;;;;;;;1.38;0.90;;;23.20;52.50;;;;;;5032398;28;20238;-68
2022/08/06 02:43:56;;;;;;;2.38;1.00;;;23.10;52.40;;;;;;5033095;28;20176;-67
2022/08/06 02:46:35;;;;;;;1.45;0.77;;;23.10;52.40;;;;;;5033098;28;20179;-68
2022/08/06 02:49:03;;;;;;;2.15;0.88;;;23.10;52.40;;;;;;5014561;28;20539;-68
2022/08/06 02:51:34;;;;;;;1.63;0.80;;;23.20;52.50;;;;;;5015366;28;20175;-67
2022/08/06 02:54:05;;;;;;;2.83;0.90;;;23.10;52.50;;;;;;5031039;28;20176;-69
2022/08/06 02:56:31;;;;;;;0.95;0.80;;;23.10;52.40;;;;;;5015474;28;20187;-68
2022/08/06 02:58:57;;;;;;;2.08;0.80;;;23.10;52.40;;;;;;5014975;28;20172;-68
2022/08/06 03:01:25;;;;;;;2.45;1.10;;;23.10;52.40;;;;;;5032080;28;20617;-69
2022/08/06 03:03:53;;;;;;;1.25;0.77;;;23.10;52.40;;;;;;5031699;28;20191;-68
2022/08/06 03:06:18;;;;;;;2.53;0.82;;;23.10;52.40;;;;;;5031052;28;20650;-69
2022/08/06 03:08:44;;;;;;;1.98;0.90;;;23.10;52.40;;;;;;5030456;28;20234;-68
2022/08/06 03:11:10;;;;;;;1.15;0.93;;;23.10;52.40;;;;;;5031727;28;20447;-69
2022/08/06 03:13:35;;;;;;;0.82;0.82;;;23.10;52.40;;;;;;5031297;28;20271;-69
2022/08/06 03:16:01;;;;;;;1.13;1.02;;;23.10;52.40;;;;;;5030793;28;20178;-68
2022/08/06 03:18:27;;;;;;;1.27;0.90;;;23.10;52.40;;;;;;5032849;28;20266;-69
2022/08/06 03:20:52;;;;;;;0.77;0.77;;;23.10;52.50;;;;;;5031186;28;20247;-68
2022/08/06 03:23:18;;;;;;;0.90;0.68;;;23.10;52.40;;;;;;5030534;28;20172;-67
2022/08/06 03:25:43;;;;;;;1.90;0.80;;;23.00;52.40;;;;;;5032598;28;20184;-67
2022/08/06 03:28:10;;;;;;;1.38;0.80;;;23.00;52.50;;;;;;5014836;28;20168;-67
2022/08/06 03:30:35;;;;;;;2.95;1.23;;;23.00;52.50;;;;;;5014065;28;20194;-68
2022/08/06 03:33:04;;;;;;;0.82;0.63;;;23.00;52.50;;;;;;5031200;28;20263;-68
2022/08/06 03:35:29;;;;;;;3.55;1.17;;;23.00;52.40;;;;;;5032542;28;20530;-68
2022/08/06 03:37:55;;;;;;;2.15;0.95;;;23.00;52.40;;;;;;5014017;28;20176;-68
2022/08/06 03:40:20;;;;;;;1.48;1.02;;;23.00;52.50;;;;;;5032582;28;20211;-68
2022/08/06 03:42:46;;;;;;;1.08;0.77;;;23.00;52.60;;;;;;5030993;28;20176;-68
2022/08/06 03:45:11;;;;;;;1.45;1.02;;;23.00;52.60;;;;;;5030869;28;20168;-67
2022/08/06 03:47:41;;;;;;;2.00;1.00;;;23.00;52.50;;;;;;5032311;28;20180;-67
2022/08/06 03:50:11;;;;;;;1.42;0.68;;;23.00;52.60;;;;;;5031376;28;20176;-68
2022/08/06 03:52:48;;;;;;;2.65;0.80;;;22.90;52.50;;;;;;5014489;28;20642;-67
2022/08/06 03:55:16;;;;;;;2.55;1.02;;;22.90;52.50;;;;;;5032246;28;20701;-68
2022/08/06 03:57:44;;;;;;;1.60;1.00;;;22.90;52.50;;;;;;5030314;28;20596;-68
2022/08/06 04:00:11;;;;;;;2.30;1.05;;;22.90;52.50;;;;;;5031282;28;20172;-67
2022/08/06 04:02:40;;;;;;;1.17;0.85;;;22.90;52.50;;;;;;5031160;28;20176;-68
2022/08/06 04:05:06;;;;;;;1.45;0.82;;;22.90;52.50;;;;;;5030237;28;20505;-70
2022/08/06 04:07:32;;;;;;;2.15;0.90;;;22.90;52.50;;;;;;5030791;28;20175;-70
2022/08/06 04:09:57;;;;;;;1.67;0.70;;;22.90;52.50;;;;;;5030667;28;20247;-69
2022/08/06 04:12:23;;;;;;;0.70;0.70;;;22.90;52.50;;;;;;5013885;28;20263;-68
2022/08/06 04:14:48;;;;;;;2.17;1.05;;;22.90;52.50;;;;;;5031750;28;20744;-69
2022/08/06 04:17:14;;;;;;;1.25;0.65;;;22.90;52.50;;;;;;5032306;28;20180;-68
2022/08/06 04:19:40;;;;;;;1.13;0.77;;;22.90;52.60;;;;;;5017431;28;20163;-68
2022/08/06 04:22:05;;;;;;;2.40;1.10;;;22.90;52.60;;;;;;5018020;28;20211;-67
2022/08/06 04:24:31;;;;;;;1.83;1.15;;;22.80;52.50;;;;;;5034549;28;20686;-68
2022/08/06 04:26:58;;;;;;;1.00;0.90;;;22.90;52.60;;;;;;5035031;28;20180;-68
2022/08/06 04:29:23;;;;;;;0.95;0.85;;;22.90;52.60;;;;;;5034369;28;20535;-68
2022/08/06 04:31:50;;;;;;;1.20;0.80;;;22.80;52.50;;;;;;5017940;28;20180;-69
2022/08/06 04:34:23;;;;;;;2.85;1.10;;;22.80;52.50;;;;;;5033680;28;20184;-69
2022/08/06 04:36:49;;;;;;;2.10;0.80;;;22.80;52.50;;;;;;5034273;28;20225;-68
2022/08/06 04:39:15;;;;;;;1.48;0.93;;;22.80;52.60;;;;;;5034024;28;20254;-69
2022/08/06 04:41:40;;;;;;;2.35;1.20;;;22.80;52.50;;;;;;5035177;28;20219;-68
2022/08/06 04:44:06;;;;;;;0.85;0.85;;;22.80;52.50;;;;;;5035307;28;20172;-68
2022/08/06 04:46:32;;;;;;;1.73;0.90;;;22.80;52.50;;;;;;5034767;28;20266;-68
2022/08/06 04:48:58;;;;;;;2.95;0.90;;;22.80;52.40;;;;;;5017444;28;20528;-68
2022/08/06 04:51:23;;;;;;;1.50;0.63;;;22.80;52.40;;;;;;5034059;28;20176;-68
2022/08/06 04:53:49;;;;;;;0.80;0.80;;;22.80;52.30;;;;;;5034203;28;20175;-68
2022/08/06 04:56:14;;;;;;;2.17;1.10;;;22.90;52.40;;;;;;5035268;28;20206;-68
2022/08/06 04:58:40;;;;;;;1.38;0.80;;;22.80;52.30;;;;;;5035327;28;20275;-68
2022/08/06 05:01:06;;;;;;;2.03;0.93;;;22.80;52.50;;;;;;5034291;28;20290;-69
2022/08/06 05:03:31;;;;;;;1.48;1.10;;;22.80;52.40;;;;;;5035075;28;20178;-65
2022/08/06 05:06:13;;;;;;;1.40;0.80;;;22.90;52.40;;;;;;5034922;28;20278;-66
2022/08/06 05:08:39;;;;;;;3.35;1.15;;;22.80;52.30;;;;;;5033037;28;20223;-66
2022/08/06 05:11:22;;;;;;;1.15;1.05;;;22.80;52.40;;;;;;5033647;28;20201;-65
2022/08/06 05:13:50;;;;;;;1.35;1.00;;;22.80;52.50;;;;;;5017163;28;20229;-66
2022/08/06 05:16:16;;;;;;;2.22;0.68;;;22.80;52.00;;;;;;5032915;28;20175;-66
2022/08/06 05:18:49;;;;;;;2.38;1.00;;;22.80;51.80;;;;;;5033563;28;20226;-65
2022/08/06 05:21:18;;;;;;;1.98;1.00;;;22.80;52.00;;;;;;5033710;28;20216;-66
2022/08/06 05:23:51;;;;;;;5.22;1.00;;;22.80;51.90;;;;;;5033915;28;20259;-65
2022/08/06 05:26:17;;;;;;;3.38;0.88;;;22.70;51.90;;;;;;5016838;28;20669;-66
2022/08/06 05:28:42;;;;;;;4.53;1.05;;;22.80;52.00;;;;;;5032369;28;20180;-65
2022/08/06 05:31:08;;;;;;;1.92;1.02;;;22.70;52.10;;;;;;5034348;28;20712;-65
2022/08/06 05:33:38;;;;;;;7.38;0.90;;;22.80;52.20;;;;;;5034405;28;20538;-67
2022/08/06 05:36:13;;;;;;;3.67;1.33;;;22.80;52.30;;;;;;5033672;28;20219;-66
2022/08/06 05:38:40;;;;;;;23.52;1.83;;;22.80;52.30;;;;;;5034601;28;20250;-66
2022/08/06 05:41:07;;;;;;;4.38;1.20;;;22.80;52.10;;;;;;5034118;28;20222;-66
2022/08/06 05:43:33;;;;;;;4.50;1.30;;;22.80;52.30;;;;;;5033543;28;20180;-66
2022/08/06 05:46:03;;;;;;;5.15;1.40;;;22.90;52.10;;;;;;5034020;28;20188;-66
2022/08/06 05:48:31;;;;;;;3.78;1.13;;;22.90;52.30;;;;;;5034297;28;20180;-65
2022/08/06 05:50:59;;;;;;;3.80;1.30;;;22.90;52.30;;;;;;5032277;28;20186;-64
2022/08/06 05:53:37;;;;;;;2.78;0.80;;;22.90;52.40;;;;;;5032816;28;20653;-66
2022/08/06 05:56:10;;;;;;;6.10;1.65;;;22.90;52.60;;;;;;5016194;28;20184;-63
2022/08/06 05:58:38;;;;;;;2.63;1.25;;;22.90;51.90;;;;;;5015636;28;20180;-63
2022/08/06 06:01:04;;;;;;;3.28;1.42;;;22.80;50.30;;;;;;5015846;28;20302;-63
2022/08/06 06:03:29;;;;;;;2.67;1.30;;;22.60;49.70;;;;;;5032758;28;20261;-62
2022/08/06 06:05:56;;;;;;;4.18;1.20;;;22.50;49.80;;;;;;5015453;28;20184;-65
2022/08/06 06:08:22;;;;;;;2.08;1.02;;;22.50;50.00;;;;;;5032397;28;20298;-65
2022/08/06 06:10:47;;;;;;;1.95;1.20;;;22.40;49.90;;;;;;5015155;28;20630;-65
2022/08/06 06:13:13;;;;;;;2.65;1.00;;;22.40;50.00;;;;;;5033646;28;20168;-65
2022/08/06 06:15:42;;;;;;;3.35;1.08;;;22.30;49.90;;;;;;5016301;28;20183;-64
2022/08/06 06:18:27;;;;;;;2.78;1.30;;;22.30;50.00;;;;;;5031786;28;20180;-69
2022/08/06 06:21:13;;;;;;;3.80;1.40;;;22.30;49.90;;;;;;5032259;28;20265;-68
2022/08/06 06:24:00;;;;;;;2.72;0.90;;;22.40;50.00;;;;;;5031560;28;20577;-67
2022/08/06 06:26:34;;;;;;;2.63;1.15;;;22.50;50.10;;;;;;5031468;28;20173;-69
2022/08/06 06:29:34;;;;;;;3.85;1.00;;;22.50;50.30;;;;;;5032251;28;20216;-68
2022/08/06 06:32:22;;;;;;;4.88;0.88;;;22.60;50.30;;;;;;5015093;28;20176;-69
2022/08/06 06:35:03;;;;;;;3.33;1.00;;;22.60;50.40;;;;;;5032191;28;20184;-69
2022/08/06 06:37:43;;;;;;;3.80;1.10;;;22.60;50.30;;;;;;5032041;28;20230;-68
2022/08/06 06:40:27;;;;;;;2.58;0.93;;;22.60;50.20;;;;;;5030685;28;20195;-68
2022/08/06 06:43:02;;;;;;;2.22;1.02;;;22.60;50.20;;;;;;5031995;28;20245;-70
2022/08/06 06:45:51;;;;;;;2.92;1.10;;;22.70;50.20;;;;;;5031704;28;20179;-68
2022/08/06 06:48:46;;;;;;;2.53;0.90;;;22.70;50.40;;;;;;5031679;28;20190;-69
2022/08/06 06:51:31;;;;;;;2.53;0.90;;;22.70;50.30;;;;;;5015664;28;20179;-68
2022/08/06 06:53:57;;;;;;;2.95;0.90;;;22.70;50.40;;;;;;5031095;28;20176;-69
2022/08/06 06:56:28;;;;;;;3.28;1.13;;;22.70;50.30;;;;;;5033116;28;20537;-68
2022/08/06 06:59:06;;;;;;;2.65;1.02;;;22.80;50.60;;;;;;5015231;28;20555;-69
2022/08/06 07:01:32;;;;;;;2.03;0.70;;;22.80;50.70;;;;;;5014632;28;20234;-69
2022/08/06 07:03:58;;;;;;;4.80;0.88;;;22.80;50.80;;;;;;5015054;28;20172;-70
2022/08/06 07:06:24;;;;;;;2.33;0.88;;;22.80;50.70;;;;;;5031834;28;20179;-71
2022/08/06 07:08:50;;;;;;;3.25;0.80;;;22.90;50.70;;;;;;5031774;28;20246;-69
2022/08/06 07:11:19;;;;;;;1.33;0.90;;;22.90;50.70;;;;;;5032926;28;20183;-69
2022/08/06 07:13:45;;;;;;;3.05;0.85;;;22.90;50.80;;;;;;5031654;28;20221;-69
2022/08/06 07:16:12;;;;;;;3.83;0.90;;;22.90;50.70;;;;;;5031126;28;20270;-70
2022/08/06 07:18:37;;;;;;;1.80;0.98;;;23.00;50.80;;;;;;5032696;28;20637;-70
2022/08/06 07:21:03;;;;;;;1.95;0.70;;;22.90;50.60;;;;;;5031659;28;20215;-68
2022/08/06 07:23:28;;;;;;;2.35;0.80;;;23.00;50.70;;;;;;5032494;28;20267;-68
2022/08/06 07:25:54;;;;;;;2.92;1.02;;;23.00;50.70;;;;;;5031426;28;20262;-68
2022/08/06 07:28:23;;;;;;;2.33;0.73;;;23.00;50.70;;;;;;5030851;28;20172;-68
2022/08/06 07:30:48;;;;;;;2.67;0.80;;;23.00;50.70;;;;;;5032649;28;20251;-68
2022/08/06 07:33:14;;;;;;;3.08;0.80;;;23.10;50.70;;;;;;5015036;28;20259;-65
2022/08/06 07:35:40;;;;;;;3.45;0.95;;;23.00;50.60;;;;;;5014278;28;20526;-61
2022/08/06 07:38:06;;;;;;;5.43;0.98;;;23.10;50.70;;;;;;5030929;28;20183;-62
2022/08/06 07:40:43;;;;;;;2.42;0.75;;;23.10;50.60;;;;;;5031172;28;20258;-61
2022/08/06 07:43:13;;;;;;;3.05;0.90;;;23.10;50.40;;;;;;5030799;28;20180;-61
2022/08/06 07:45:39;;;;;;;1.10;0.70;;;23.10;50.30;;;;;;5015154;28;20183;-61
2022/08/06 07:48:10;;;;;;;2.88;0.85;;;23.10;50.30;;;;;;5014664;28;20172;-61
2022/08/06 07:50:35;;;;;;;3.10;0.80;;;23.10;50.30;;;;;;5013803;28;20241;-62
2022/08/06 07:53:01;;;;;;;2.92;0.70;;;23.10;50.30;;;;;;5034019;28;20184;-61
2022/08/06 07:55:27;;;;;;;2.50;0.80;;;23.10;50.30;;;;;;5035311;28;20203;-62
2022/08/06 07:57:53;;;;;;;2.28;0.75;;;23.20;50.40;;;;;;5033418;28;20221;-61
2022/08/06 08:00:19;;;;;;;1.20;0.70;;;23.20;50.40;;;;;;5018472;28;20176;-61
2022/08/06 08:06:17;;;;;;;1.65;0.80;;;23.10;50.50;;;;;;5036098;28;20186;-61
2022/08/06 08:08:14;;;;;;;1.30;0.70;;;23.10;50.50;;;;;;5035875;28;20179;-63
2022/08/06 08:10:40;;;;;;;1.65;0.60;;;23.10;50.70;;;;;;5034460;28;20168;-62
2022/08/06 08:13:05;;;;;;;2.15;0.73;;;23.20;50.70;;;;;;5034692;28;20172;-62
2022/08/06 08:15:31;;;;;;;2.15;0.70;;;23.20;50.70;;;;;;5034647;28;20248;-61
2022/08/06 08:17:57;;;;;;;3.10;0.75;;;23.20;50.60;;;;;;5034991;28;20238;-61
2022/08/06 08:20:23;;;;;;;1.45;0.70;;;23.20;50.60;;;;;;5034716;28;20689;-61
2022/08/06 08:22:48;;;;;;;2.03;0.80;;;23.20;50.60;;;;;;5018266;28;20172;-61
2022/08/06 08:25:14;;;;;;;2.20;0.52;;;23.20;50.60;;;;;;5033973;28;20176;-61
2022/08/06 08:27:39;;;;;;;2.15;0.47;;;23.10;50.60;;;;;;5035824;28;20171;-63
2022/08/06 08:30:05;;;;;;;0.68;0.50;;;23.10;50.60;;;;;;5035554;28;20306;-62
2022/08/06 08:32:31;;;;;;;0.85;0.40;;;23.10;50.70;;;;;;5034695;28;20649;-61
2022/08/06 08:34:56;;;;;;;1.35;0.73;;;23.20;50.80;;;;;;5035360;28;20188;-62
2022/08/06 08:37:22;;;;;;;1.45;0.80;;;23.20;50.40;;;;;;5035652;28;20649;-62
2022/08/06 08:39:47;;;;;;;2.00;0.60;;;23.20;50.40;;;;;;5034594;28;20493;-62
2022/08/06 08:42:27;;;;;;;1.10;0.60;;;23.30;50.40;;;;;;5035363;28;20223;-62
2022/08/06 08:44:53;;;;;;;1.17;0.70;;;23.20;50.40;;;;;;5017501;28;20176;-61
2022/08/06 08:47:19;;;;;;;1.17;0.65;;;23.20;50.40;;;;;;5016826;28;20278;-62
2022/08/06 08:49:51;;;;;;;2.28;1.02;;;23.20;50.40;;;;;;5035179;28;20661;-61
2022/08/06 08:52:19;;;;;;;0.73;0.55;;;23.30;50.40;;;;;;5035130;28;20692;-62
2022/08/06 08:54:50;;;;;;;1.20;0.40;;;23.40;50.40;;;;;;5033222;28;20184;-62
2022/08/06 08:57:16;;;;;;;1.52;0.70;;;23.40;50.80;;;;;;5033959;28;20168;-61
2022/08/06 08:59:41;;;;;;;1.38;0.52;;;23.40;50.20;;;;;;5033288;28;20660;-62
2022/08/06 09:02:07;;;;;;;1.40;0.60;;;23.40;50.20;;;;;;5033865;28;20219;-62
2022/08/06 09:04:33;;;;;;;1.13;0.52;;;23.40;50.20;;;;;;5033139;28;20535;-61
2022/08/06 09:06:58;;;;;;;0.60;0.50;;;23.40;50.20;;;;;;5033107;28;20646;-63
2022/08/06 09:09:24;;;;;;;0.52;0.50;;;23.40;50.20;;;;;;5034880;28;20220;-62
2022/08/06 09:11:50;;;;;;;2.35;1.00;;;23.50;50.20;;;;;;5034927;28;20180;-61
2022/08/06 09:14:15;;;;;;;1.48;0.50;;;23.50;50.20;;;;;;5034183;28;20178;-62
2022/08/06 09:16:41;;;;;;;0.68;0.47;;;23.50;50.00;;;;;;5035125;28;20712;-62
2022/08/06 09:19:06;;;;;;;1.75;0.77;;;23.60;50.00;;;;;;5034633;28;20179;-62
2022/08/06 09:21:32;;;;;;;1.83;0.60;;;23.50;49.80;;;;;;5034091;28;20681;-62
2022/08/06 09:23:57;;;;;;;1.38;0.45;;;23.60;49.70;;;;;;5033447;28;20191;-62
2022/08/06 09:26:23;;;;;;;1.27;0.60;;;23.60;49.60;;;;;;5034648;28;20187;-61
2022/08/06 09:28:49;;;;;;;2.35;0.60;;;23.60;49.60;;;;;;5032549;28;20661;-62
2022/08/06 09:31:18;;;;;;;1.10;0.70;;;23.70;49.70;;;;;;5034659;28;20253;-62
2022/08/06 09:33:55;;;;;;;0.40;0.40;;;23.70;49.70;;;;;;5034521;28;20186;-62
2022/08/06 09:36:20;;;;;;;0.40;0.40;;;23.70;49.70;;;;;;5033837;28;20230;-62
2022/08/06 09:38:59;;;;;;;0.52;0.40;;;23.80;49.70;;;;;;5033124;28;20168;-62
2022/08/06 09:41:27;;;;;;;1.33;0.60;;;23.80;49.50;;;;;;5034504;28;20227;-62
2022/08/06 09:43:54;;;;;;;0.60;0.50;;;23.70;49.50;;;;;;5033682;28;20195;-61
2022/08/06 09:46:42;;;;;;;0.70;0.40;;;23.60;49.60;;;;;;5034113;28;20174;-61
2022/08/06 09:49:09;;;;;;;1.20;0.50;;;23.60;49.50;;;;;;5033637;28;20206;-61
2022/08/06 09:51:35;;;;;;;1.92;0.50;;;23.50;49.70;;;;;;5034151;28;20184;-62
2022/08/06 09:54:01;;;;;;;1.45;0.73;;;23.40;49.80;;;;;;5034512;28;20182;-62
2022/08/06 09:56:27;;;;;;;0.73;0.60;;;23.40;49.80;;;;;;5033498;28;20191;-61
2022/08/06 09:58:59;;;;;;;0.90;0.57;;;23.40;49.70;;;;;;5034128;28;20184;-62
2022/08/06 10:01:25;;;;;;;0.30;0.30;;;23.40;49.70;;;;;;5033799;28;20208;-61
2022/08/06 10:03:52;;;;;;;0.77;0.43;;;23.50;49.80;;;;;;5033223;28;20184;-62
2022/08/06 10:06:20;;;;;;;1.85;0.60;;;23.60;49.40;;;;;;5033715;28;20187;-63
2022/08/06 10:08:50;;;;;;;1.10;0.50;;;23.70;49.20;;;;;;5033669;28;20239;-62
2022/08/06 10:11:36;;;;;;;0.30;0.30;;;23.70;48.90;;;;;;5033304;28;20184;-62
2022/08/06 10:14:02;;;;;;;1.63;0.50;;;23.70;48.80;;;;;;5033674;28;20184;-63
2022/08/06 10:16:28;;;;;;;1.30;0.57;;;23.70;48.70;;;;;;5033609;28;20180;-63
2022/08/06 10:18:53;;;;;;;1.05;0.70;;;23.70;48.90;;;;;;5032810;28;20534;-62
2022/08/06 10:21:23;;;;;;;0.55;0.55;;;23.60;49.00;;;;;;5033422;28;20685;-62
2022/08/06 10:23:50;;;;;;;1.65;0.50;;;23.50;49.10;;;;;;5033631;28;20183;-62
2022/08/06 10:26:26;;;;;;;0.85;0.40;;;23.50;49.20;;;;;;5032864;28;20176;-62
2022/08/06 10:28:52;;;;;;;1.02;0.50;;;23.40;49.30;;;;;;5032283;28;20519;-62
2022/08/06 10:31:17;;;;;;;1.00;0.60;;;23.40;49.30;;;;;;5032673;28;20183;-62
2022/08/06 10:34:08;;;;;;;1.27;0.50;;;23.40;49.50;;;;;;5033662;28;20180;-62
2022/08/06 10:36:40;;;;;;;1.42;0.60;;;23.40;49.40;;;;;;5033365;28;20176;-62
2022/08/06 10:39:06;;;;;;;1.23;0.45;;;23.40;49.40;;;;;;5032524;28;20266;-63
2022/08/06 10:41:34;;;;;;;1.35;0.80;;;23.50;49.40;;;;;;5032265;28;20288;-62
2022/08/06 10:44:00;;;;;;;0.75;0.43;;;23.70;49.20;;;;;;5033508;28;20195;-62
2022/08/06 10:46:26;;;;;;;0.95;0.50;;;23.70;49.00;;;;;;5015985;28;20642;-62
2022/08/06 10:48:53;;;;;;;0.85;0.60;;;23.70;48.90;;;;;;5033408;28;20258;-62
2022/08/06 10:51:18;;;;;;;0.40;0.40;;;23.60;49.20;;;;;;5033079;28;20187;-62
2022/08/06 10:53:44;;;;;;;1.20;0.60;;;23.50;49.30;;;;;;5032214;28;20175;-62
2022/08/06 10:56:12;;;;;;;0.98;0.50;;;23.50;49.30;;;;;;5033093;28;20483;-62
2022/08/06 10:58:38;;;;;;;0.68;0.50;;;23.40;49.30;;;;;;5033129;28;20175;-63
2022/08/06 11:01:17;;;;;;;0.57;0.40;;;23.40;49.30;;;;;;5032002;28;20305;-63
2022/08/06 11:04:01;;;;;;;1.48;0.50;;;23.40;49.50;;;;;;5015639;28;20184;-63
2022/08/06 11:06:52;;;;;;;1.75;0.60;;;23.40;49.50;;;;;;5032214;28;20179;-63
2022/08/06 11:09:27;;;;;;;1.05;0.63;;;23.40;49.60;;;;;;5031678;28;20310;-63
2022/08/06 11:12:26;;;;;;;0.40;0.40;;;23.40;49.60;;;;;;5031646;28;20222;-62
2022/08/06 11:14:51;;;;;;;1.23;0.50;;;23.40;49.50;;;;;;5014163;28;20202;-63
2022/08/06 11:17:17;;;;;;;1.27;0.63;;;23.30;49.50;;;;;;5015140;28;20542;-63
2022/08/06 11:19:45;;;;;;;0.90;0.50;;;23.30;49.50;;;;;;5033045;28;20697;-63
2022/08/06 11:22:34;;;;;;;1.20;0.50;;;23.30;49.60;;;;;;5031934;28;20608;-63
2022/08/06 11:25:00;;;;;;;1.50;0.40;;;23.30;49.70;;;;;;5024857;28;20188;-62
2022/08/06 11:27:51;;;;;;;0.90;0.60;;;23.30;49.50;;;;;;5035884;28;20182;-62
2022/08/06 11:30:18;;;;;;;1.55;0.52;;;23.30;49.40;;;;;;5039198;28;20580;-63
2022/08/06 11:32:44;;;;;;;0.73;0.57;;;23.30;49.40;;;;;;5039379;28;20179;-63
2022/08/06 11:35:43;;;;;;;1.27;0.70;;;23.40;49.40;;;;;;5038661;28;20187;-63
2022/08/06 11:38:10;;;;;;;1.30;0.75;;;23.40;49.50;;;;;;5027118;28;20199;-63
2022/08/06 11:40:54;;;;;;;1.00;0.60;;;23.40;49.50;;;;;;5039157;28;20215;-62
2022/08/06 11:43:41;;;;;;;0.57;0.45;;;23.30;49.40;;;;;;5038492;28;20171;-62
2022/08/06 11:46:26;;;;;;;0.98;0.50;;;23.30;49.50;;;;;;5038937;28;20175;-62
2022/08/06 11:49:03;;;;;;;0.60;0.50;;;23.30;49.50;;;;;;5038115;28;20690;-62
2022/08/06 11:51:49;;;;;;;1.38;0.52;;;23.20;49.50;;;;;;5039115;28;20187;-62
2022/08/06 11:54:27;;;;;;;1.30;0.50;;;23.30;49.60;;;;;;5039064;28;20179;-62
2022/08/06 11:57:01;;;;;;;0.65;0.50;;;23.20;49.60;;;;;;5038350;28;20203;-62
2022/08/06 11:59:37;;;;;;;1.60;0.85;;;23.20;49.50;;;;;;5039114;28;20174;-62
2022/08/06 12:02:07;;;;;;;1.35;0.40;;;23.20;49.70;;;;;;5038773;28;20584;-62
2022/08/06 12:04:36;;;;;;;0.45;0.43;;;23.20;49.50;;;;;;5038175;28;20175;-62
2022/08/06 12:07:21;;;;;;;1.08;0.63;;;23.20;49.60;;;;;;5038662;28;20270;-62
2022/08/06 12:10:05;;;;;;;0.50;0.50;;;23.20;49.60;;;;;;5037888;28;20269;-63
2022/08/06 12:12:38;;;;;;;0.57;0.40;;;23.20;49.70;;;;;;5038858;28;20691;-62
2022/08/06 12:15:13;;;;;;;0.63;0.55;;;23.20;49.50;;;;;;5038629;28;20190;-62
2022/08/06 12:17:58;;;;;;;0.75;0.60;;;23.20;49.60;;;;;;5038088;28;20179;-62
2022/08/06 12:20:40;;;;;;;0.73;0.50;;;23.20;49.60;;;;;;5038587;28;20548;-62
2022/08/06 12:23:11;;;;;;;0.65;0.50;;;23.30;49.50;;;;;;5038646;28;20175;-62
2022/08/06 12:25:38;;;;;;;0.60;0.60;;;23.40;49.90;;;;;;5037980;28;20175;-62
2022/08/06 12:28:04;;;;;;;0.95;0.82;;;23.50;48.60;;;;;;5038582;28;20175;-62
2022/08/06 12:30:49;;;;;;;0.93;0.68;;;23.60;48.50;;;;;;5038323;28;20180;-62
2022/08/06 12:33:15;;;;;;;1.35;0.60;;;23.60;48.30;;;;;;5038744;28;20194;-62
2022/08/06 12:35:51;;;;;;;1.73;0.82;;;23.70;48.20;;;;;;5038751;28;20247;-62
2022/08/06 12:38:17;;;;;;;2.53;0.70;;;23.80;48.00;;;;;;5034281;28;20722;-62
2022/08/06 12:40:53;;;;;;;0.80;0.60;;;23.80;47.90;;;;;;5035645;28;20298;-62
2022/08/06 12:43:19;;;;;;;0.98;0.68;;;23.90;47.90;;;;;;5034526;28;20180;-62
2022/08/06 12:45:44;;;;;;;1.80;0.93;;;23.90;47.90;;;;;;5034425;28;20234;-62
2022/08/06 12:48:11;;;;;;;1.27;0.50;;;23.70;48.10;;;;;;5035519;28;20180;-63
2022/08/06 12:50:38;;;;;;;0.50;0.50;;;23.60;48.30;;;;;;5035242;28;20172;-62
2022/08/06 12:53:09;;;;;;;2.50;1.00;;;23.50;48.50;;;;;;5034424;28;20196;-62
2022/08/06 12:55:48;;;;;;;0.88;0.52;;;23.50;48.60;;;;;;5035253;28;20529;-62
2022/08/06 12:58:19;;;;;;;1.48;0.65;;;23.50;48.70;;;;;;5035395;28;20171;-62
2022/08/06 13:00:48;;;;;;;2.75;0.65;;;23.40;48.70;;;;;;5016677;28;20219;-62
2022/08/06 13:03:13;;;;;;;1.20;0.60;;;23.40;48.70;;;;;;5033820;28;20180;-62